createdAt,value
2019-04-06T00:00:04.059Z,1004.54
2019-04-06T00:01:01.810Z,1004.54
2019-04-06T00:02:01.987Z,1004.54
2019-04-06T00:03:02.270Z,1004.51
2019-04-06T00:04:02.519Z,1004.51
2019-04-06T00:05:02.730Z,1004.51
2019-04-06T00:06:01.969Z,1004.51
2019-04-06T00:07:02.155Z,1004.58
2019-04-06T00:08:02.354Z,1004.58
2019-04-06T00:09:02.562Z,1004.58
2019-04-06T00:10:01.872Z,1004.58
2019-04-06T00:11:01.972Z,1004.53
2019-04-06T00:12:02.277Z,1004.53
2019-04-06T00:13:02.431Z,1004.53
2019-04-06T00:14:02.715Z,1004.53
2019-04-06T00:15:02.080Z,1004.47
2019-04-06T00:16:02.234Z,1004.47
2019-04-06T00:17:02.544Z,1004.47
2019-04-06T00:18:01.788Z,1004.47
2019-04-06T00:19:02.011Z,1004.51
2019-04-06T00:20:02.210Z,1004.51
2019-04-06T00:21:02.363Z,1004.51
2019-04-06T00:22:02.724Z,1004.51
2019-04-06T00:23:01.768Z,1004.45
2019-04-06T00:24:02.124Z,1004.45
2019-04-06T00:25:02.344Z,1004.45
2019-04-06T00:26:02.576Z,1004.45
2019-04-06T00:27:01.747Z,1004.41
2019-04-06T00:28:02.006Z,1004.41
2019-04-06T00:29:02.290Z,1004.41
2019-04-06T00:30:02.449Z,1004.41
2019-04-06T00:31:02.620Z,1004.43
2019-04-06T00:32:01.889Z,1004.43
2019-04-06T00:33:02.086Z,1004.43
2019-04-06T00:34:02.395Z,1004.43
2019-04-06T00:35:02.589Z,1004.37
2019-04-06T00:36:01.808Z,1004.37
2019-04-06T00:37:02.123Z,1004.37
2019-04-06T00:38:02.653Z,1004.37
2019-04-06T00:39:02.796Z,1004.28
2019-04-06T00:40:02.739Z,1004.28
2019-04-06T00:41:02.021Z,1004.28
2019-04-06T00:42:02.209Z,1004.28
2019-04-06T00:43:02.437Z,1004.38
2019-04-06T00:44:02.812Z,1004.38
2019-04-06T00:45:02.012Z,1004.38
2019-04-06T00:46:02.246Z,1004.38
2019-04-06T00:47:02.517Z,1004.31
2019-04-06T00:48:02.649Z,1004.31
2019-04-06T00:49:01.908Z,1004.31
2019-04-06T00:50:02.189Z,1004.31
2019-04-06T00:51:02.398Z,1004.22
2019-04-06T00:52:02.604Z,1004.22
2019-04-06T00:53:01.914Z,1004.22
2019-04-06T00:54:02.091Z,1004.22
2019-04-06T00:55:02.332Z,1004.33
2019-04-06T00:56:02.501Z,1004.33
2019-04-06T00:57:02.498Z,1004.33
2019-04-06T00:58:02.619Z,1004.33
2019-04-06T00:59:01.888Z,1004.2
2019-04-06T01:00:04.855Z,1004.2
2019-04-06T01:01:02.644Z,1004.2
2019-04-06T01:02:02.566Z,1004.2
2019-04-06T01:03:01.885Z,1004.07
2019-04-06T01:04:02.027Z,1004.07
2019-04-06T01:05:01.915Z,1004.07
2019-04-06T01:06:02.219Z,1004.07
2019-04-06T01:07:02.418Z,1004
2019-04-06T01:08:02.630Z,1004
2019-04-06T01:09:01.787Z,1004
2019-04-06T01:10:02.048Z,1004
2019-04-06T01:11:02.293Z,1004.13
2019-04-06T01:12:02.517Z,1004.13
2019-04-06T01:13:02.742Z,1004.13
2019-04-06T01:14:01.941Z,1004.13
2019-04-06T01:15:02.279Z,1003.98
2019-04-06T01:16:02.612Z,1003.98
2019-04-06T01:17:02.512Z,1003.98
2019-04-06T01:18:02.711Z,1003.98
2019-04-06T01:19:01.954Z,1004.01
2019-04-06T01:20:02.324Z,1004.01
2019-04-06T01:21:06.012Z,1004.01
2019-04-06T01:22:02.716Z,1004.01
2019-04-06T01:23:01.941Z,1004
2019-04-06T01:24:02.203Z,1004
2019-04-06T01:25:02.445Z,1004
2019-04-06T01:26:08.132Z,1003.99
2019-04-06T01:27:01.950Z,1003.99
2019-04-06T01:28:02.051Z,1003.99
2019-04-06T01:29:02.275Z,1003.99
2019-04-06T01:30:02.543Z,1004
2019-04-06T01:31:01.979Z,1004
2019-04-06T01:32:02.062Z,1004
2019-04-06T01:33:02.213Z,1004
2019-04-06T01:34:02.479Z,1003.98
2019-04-06T01:35:02.654Z,1003.98
2019-04-06T01:36:01.961Z,1003.98
2019-04-06T01:37:02.091Z,1003.98
2019-04-06T01:38:02.346Z,1004.04
2019-04-06T01:39:02.635Z,1004.04
2019-04-06T01:40:02.105Z,1004.04
2019-04-06T01:41:02.348Z,1004.04
2019-04-06T01:42:02.468Z,1003.98
2019-04-06T01:43:02.681Z,1003.98
2019-04-06T01:44:01.879Z,1003.98
2019-04-06T01:45:02.220Z,1003.98
2019-04-06T01:46:02.431Z,1004.01
2019-04-06T01:47:02.743Z,1004.01
2019-04-06T01:48:01.863Z,1004.01
2019-04-06T01:49:02.052Z,1004.01
2019-04-06T01:50:02.527Z,1004.07
2019-04-06T01:51:02.627Z,1004.07
2019-04-06T01:52:01.820Z,1004.07
2019-04-06T01:53:02.130Z,1004.07
2019-04-06T01:54:02.263Z,1003.98
2019-04-06T01:55:02.566Z,1003.98
2019-04-06T01:56:01.760Z,1003.98
2019-04-06T01:57:02.004Z,1003.98
2019-04-06T01:58:02.195Z,1004
2019-04-06T01:59:02.504Z,1004
2019-04-06T02:00:04.364Z,1004
2019-04-06T02:01:01.851Z,1004
2019-04-06T02:02:02.116Z,1004.01
2019-04-06T02:03:02.471Z,1004.01
2019-04-06T02:04:02.463Z,1004.01
2019-04-06T02:05:02.809Z,1004.01
2019-04-06T02:06:01.883Z,1004.01
2019-04-06T02:07:02.215Z,1004.01
2019-04-06T02:08:02.347Z,1004.01
2019-04-06T02:09:02.668Z,1004.01
2019-04-06T02:10:02.075Z,1003.86
2019-04-06T02:11:02.216Z,1003.86
2019-04-06T02:12:02.496Z,1003.86
2019-04-06T02:13:01.772Z,1003.86
2019-04-06T02:14:01.977Z,1003.82
2019-04-06T02:15:02.267Z,1003.82
2019-04-06T02:16:02.504Z,1003.82
2019-04-06T02:17:02.568Z,1003.82
2019-04-06T02:18:01.848Z,1003.8
2019-04-06T02:19:02.102Z,1003.8
2019-04-06T02:20:02.352Z,1003.8
2019-04-06T02:21:02.541Z,1003.8
2019-04-06T02:22:01.769Z,1003.78
2019-04-06T02:23:02.030Z,1003.78
2019-04-06T02:24:02.201Z,1003.78
2019-04-06T02:25:02.515Z,1003.78
2019-04-06T02:26:02.700Z,1003.69
2019-04-06T02:27:01.895Z,1003.69
2019-04-06T02:28:02.175Z,1003.69
2019-04-06T02:29:02.459Z,1003.69
2019-04-06T02:30:02.575Z,1003.79
2019-04-06T02:31:01.795Z,1003.79
2019-04-06T02:32:02.100Z,1003.79
2019-04-06T02:33:02.276Z,1003.79
2019-04-06T02:34:02.520Z,1003.82
2019-04-06T02:35:02.948Z,1003.82
2019-04-06T02:36:02.074Z,1003.82
2019-04-06T02:37:06.762Z,1003.82
2019-04-06T02:38:02.454Z,1003.74
2019-04-06T02:39:02.795Z,1003.74
2019-04-06T02:40:01.977Z,1003.74
2019-04-06T02:41:02.281Z,1003.74
2019-04-06T02:42:02.467Z,1003.81
2019-04-06T02:43:02.585Z,1003.81
2019-04-06T02:44:01.798Z,1003.81
2019-04-06T02:45:02.276Z,1003.81
2019-04-06T02:46:02.499Z,1003.83
2019-04-06T02:47:02.645Z,1003.83
2019-04-06T02:48:01.877Z,1003.83
2019-04-06T02:49:02.043Z,1003.83
2019-04-06T02:50:02.373Z,1003.76
2019-04-06T02:51:02.565Z,1003.76
2019-04-06T02:52:01.865Z,1003.76
2019-04-06T02:53:02.331Z,1003.76
2019-04-06T02:54:02.290Z,1003.77
2019-04-06T02:55:02.516Z,1003.77
2019-04-06T02:56:02.705Z,1003.77
2019-04-06T02:57:01.878Z,1003.77
2019-04-06T02:58:02.219Z,1003.9
2019-04-06T02:59:02.633Z,1003.9
2019-04-06T03:00:02.503Z,1003.9
2019-04-06T03:01:02.894Z,1003.9
2019-04-06T03:02:02.021Z,1003.92
2019-04-06T03:03:02.253Z,1003.92
2019-04-06T03:04:02.527Z,1003.92
2019-04-06T03:05:02.706Z,1003.93
2019-04-06T03:06:01.950Z,1003.93
2019-04-06T03:07:02.234Z,1003.93
2019-04-06T03:08:02.034Z,1003.93
2019-04-06T03:09:02.252Z,1003.93
2019-04-06T03:10:02.482Z,1003.93
2019-04-06T03:11:01.734Z,1003.93
2019-04-06T03:12:02.373Z,1003.93
2019-04-06T03:13:02.519Z,1003.97
2019-04-06T03:14:02.487Z,1003.97
2019-04-06T03:15:01.764Z,1003.97
2019-04-06T03:16:02.051Z,1003.97
2019-04-06T03:17:02.287Z,1003.87
2019-04-06T03:18:02.408Z,1003.87
2019-04-06T03:19:02.625Z,1003.87
2019-04-06T03:20:01.795Z,1003.87
2019-04-06T03:21:02.166Z,1003.88
2019-04-06T03:22:02.308Z,1003.88
2019-04-06T03:23:02.472Z,1003.88
2019-04-06T03:24:02.076Z,1003.88
2019-04-06T03:25:02.178Z,1003.81
2019-04-06T03:26:02.675Z,1003.81
2019-04-06T03:27:03.522Z,1003.81
2019-04-06T03:28:02.666Z,1003.81
2019-04-06T03:29:01.879Z,1003.82
2019-04-06T03:30:02.429Z,1003.82
2019-04-06T03:31:02.617Z,1003.82
2019-04-06T03:32:02.690Z,1003.82
2019-04-06T03:33:01.977Z,1003.89
2019-04-06T03:34:02.520Z,1003.89
2019-04-06T03:35:03.085Z,1003.89
2019-04-06T03:36:02.433Z,1003.89
2019-04-06T03:37:02.572Z,1003.85
2019-04-06T03:38:01.967Z,1003.85
2019-04-06T03:39:02.113Z,1003.85
2019-04-06T03:40:02.360Z,1003.85
2019-04-06T03:41:02.542Z,1003.86
2019-04-06T03:42:01.718Z,1003.86
2019-04-06T03:43:01.903Z,1003.86
2019-04-06T03:44:02.310Z,1003.86
2019-04-06T03:45:02.439Z,1003.9
2019-04-06T03:46:02.708Z,1003.9
2019-04-06T03:47:01.878Z,1003.9
2019-04-06T03:48:02.065Z,1003.9
2019-04-06T03:49:02.226Z,1003.85
2019-04-06T03:50:02.069Z,1003.85
2019-04-06T03:51:02.451Z,1003.85
2019-04-06T03:52:02.452Z,1003.85
2019-04-06T03:53:01.770Z,1003.85
2019-04-06T03:54:01.903Z,1003.85
2019-04-06T03:55:02.205Z,1003.85
2019-04-06T03:56:02.705Z,1003.85
2019-04-06T03:57:17.240Z,1003.83
2019-04-06T03:58:02.212Z,1003.83
2019-04-06T03:59:02.212Z,1003.83
2019-04-06T04:00:04.007Z,1003.83
2019-04-06T04:01:01.797Z,1003.81
2019-04-06T04:02:02.252Z,1003.81
2019-04-06T04:03:02.275Z,1003.81
2019-04-06T04:04:02.721Z,1003.81
2019-04-06T04:05:01.784Z,1003.79
2019-04-06T04:06:01.911Z,1003.79
2019-04-06T04:07:02.400Z,1003.79
2019-04-06T04:08:02.552Z,1003.79
2019-04-06T04:09:01.835Z,1003.78
2019-04-06T04:10:01.937Z,1003.78
2019-04-06T04:11:02.166Z,1003.78
2019-04-06T04:12:02.403Z,1003.78
2019-04-06T04:13:02.788Z,1003.75
2019-04-06T04:14:01.855Z,1003.75
2019-04-06T04:15:02.224Z,1003.75
2019-04-06T04:16:02.387Z,1003.75
2019-04-06T04:17:02.378Z,1003.73
2019-04-06T04:18:01.674Z,1003.73
2019-04-06T04:19:01.883Z,1003.73
2019-04-06T04:20:02.556Z,1003.73
2019-04-06T04:21:02.321Z,1003.82
2019-04-06T04:22:02.656Z,1003.82
2019-04-06T04:23:01.796Z,1003.82
2019-04-06T04:24:02.185Z,1003.82
2019-04-06T04:25:02.534Z,1003.68
2019-04-06T04:26:02.470Z,1003.68
2019-04-06T04:27:01.813Z,1003.68
2019-04-06T04:28:02.034Z,1003.68
2019-04-06T04:29:02.309Z,1003.75
2019-04-06T04:30:02.548Z,1003.75
2019-04-06T04:31:01.850Z,1003.75
2019-04-06T04:32:01.958Z,1003.75
2019-04-06T04:33:02.246Z,1003.73
2019-04-06T04:34:02.686Z,1003.73
2019-04-06T04:35:02.786Z,1003.73
2019-04-06T04:36:01.825Z,1003.73
2019-04-06T04:37:02.302Z,1003.58
2019-04-06T04:38:02.294Z,1003.58
2019-04-06T04:39:02.593Z,1003.58
2019-04-06T04:40:01.868Z,1003.58
2019-04-06T04:41:02.206Z,1003.63
2019-04-06T04:42:02.472Z,1003.63
2019-04-06T04:43:02.545Z,1003.63
2019-04-06T04:44:02.025Z,1003.63
2019-04-06T04:45:02.163Z,1003.48
2019-04-06T04:46:02.303Z,1003.48
2019-04-06T04:47:02.496Z,1003.48
2019-04-06T04:48:01.769Z,1003.48
2019-04-06T04:49:01.996Z,1003.53
2019-04-06T04:50:02.503Z,1003.53
2019-04-06T04:51:02.484Z,1003.53
2019-04-06T04:52:01.651Z,1003.5
2019-04-06T04:53:02.029Z,1003.5
2019-04-06T04:54:02.112Z,1003.5
2019-04-06T04:55:02.431Z,1003.5
2019-04-06T04:56:02.537Z,1003.54
2019-04-06T04:57:01.936Z,1003.54
2019-04-06T04:58:02.146Z,1003.54
2019-04-06T04:59:02.434Z,1003.54
2019-04-06T05:00:04.326Z,1003.57
2019-04-06T05:01:02.108Z,1003.57
2019-04-06T05:02:02.309Z,1003.57
2019-04-06T05:03:02.534Z,1003.57
2019-04-06T05:04:01.684Z,1003.63
2019-04-06T05:05:01.997Z,1003.63
2019-04-06T05:06:02.331Z,1003.63
2019-04-06T05:07:02.368Z,1003.63
2019-04-06T05:08:01.642Z,1003.68
2019-04-06T05:09:01.911Z,1003.68
2019-04-06T05:10:02.082Z,1003.68
2019-04-06T05:11:02.367Z,1003.68
2019-04-06T05:12:02.472Z,1003.63
2019-04-06T05:13:01.754Z,1003.63
2019-04-06T05:14:01.947Z,1003.63
2019-04-06T05:15:02.374Z,1003.63
2019-04-06T05:16:02.611Z,1003.71
2019-04-06T05:17:03.064Z,1003.71
2019-04-06T05:18:01.849Z,1003.71
2019-04-06T05:19:02.089Z,1003.71
2019-04-06T05:20:02.308Z,1003.75
2019-04-06T05:21:02.606Z,1003.75
2019-04-06T05:22:01.831Z,1003.75
2019-04-06T05:23:01.912Z,1003.75
2019-04-06T05:24:02.023Z,1003.79
2019-04-06T05:25:02.718Z,1003.79
2019-04-06T05:26:02.515Z,1003.79
2019-04-06T05:27:01.779Z,1003.79
2019-04-06T05:28:01.980Z,1003.82
2019-04-06T05:29:02.311Z,1003.82
2019-04-06T05:30:02.430Z,1003.82
2019-04-06T05:31:02.620Z,1003.82
2019-04-06T05:32:01.848Z,1003.79
2019-04-06T05:33:02.097Z,1003.79
2019-04-06T05:34:02.251Z,1003.79
2019-04-06T05:35:02.532Z,1003.79
2019-04-06T05:36:01.716Z,1003.81
2019-04-06T05:37:01.924Z,1003.81
2019-04-06T05:38:02.219Z,1003.81
2019-04-06T05:39:02.529Z,1003.81
2019-04-06T05:40:01.680Z,1003.85
2019-04-06T05:41:01.993Z,1003.85
2019-04-06T05:42:02.167Z,1003.85
2019-04-06T05:43:02.538Z,1003.85
2019-04-06T05:44:01.677Z,1003.94
2019-04-06T05:45:01.942Z,1003.94
2019-04-06T05:46:02.086Z,1003.94
2019-04-06T05:47:02.328Z,1003.94
2019-04-06T05:48:02.642Z,1003.98
2019-04-06T05:49:01.846Z,1003.98
2019-04-06T05:50:01.989Z,1003.98
2019-04-06T05:51:02.231Z,1003.98
2019-04-06T05:52:02.430Z,1003.95
2019-04-06T05:53:01.741Z,1003.95
2019-04-06T05:54:01.889Z,1003.95
2019-04-06T05:55:02.182Z,1003.95
2019-04-06T05:56:02.491Z,1004
2019-04-06T05:57:02.674Z,1004
2019-04-06T05:58:09.421Z,1004
2019-04-06T05:59:02.125Z,1004
2019-04-06T06:00:03.712Z,1004
2019-04-06T06:01:04.597Z,1004
2019-04-06T06:02:01.899Z,1004
2019-04-06T06:03:01.895Z,1004
2019-04-06T06:04:02.139Z,1004.04
2019-04-06T06:05:02.542Z,1004.04
2019-04-06T06:06:02.815Z,1004.04
2019-04-06T06:07:01.831Z,1004.04
2019-04-06T06:08:01.994Z,1004.11
2019-04-06T06:09:02.290Z,1004.11
2019-04-06T06:10:02.605Z,1004.11
2019-04-06T06:11:01.840Z,1004.11
2019-04-06T06:12:01.972Z,1004.18
2019-04-06T06:13:02.310Z,1004.18
2019-04-06T06:14:02.713Z,1004.18
2019-04-06T06:15:02.480Z,1004.18
2019-04-06T06:16:01.793Z,1004.25
2019-04-06T06:17:01.841Z,1004.25
2019-04-06T06:18:02.105Z,1004.25
2019-04-06T06:19:02.354Z,1004.25
2019-04-06T06:20:02.818Z,1004.27
2019-04-06T06:21:01.780Z,1004.27
2019-04-06T06:22:02.141Z,1004.27
2019-04-06T06:23:02.379Z,1004.27
2019-04-06T06:24:02.520Z,1004.17
2019-04-06T06:25:02.099Z,1004.17
2019-04-06T06:26:01.964Z,1004.17
2019-04-06T06:27:02.221Z,1004.17
2019-04-06T06:28:13.513Z,1004.31
2019-04-06T06:29:02.645Z,1004.31
2019-04-06T06:30:01.772Z,1004.31
2019-04-06T06:31:02.094Z,1004.31
2019-04-06T06:32:02.190Z,1004.29
2019-04-06T06:33:02.058Z,1004.29
2019-04-06T06:34:02.430Z,1004.29
2019-04-06T06:35:02.510Z,1004.31
2019-04-06T06:36:01.751Z,1004.31
2019-04-06T06:37:01.895Z,1004.31
2019-04-06T06:38:02.072Z,1004.31
2019-04-06T06:39:02.320Z,1004.42
2019-04-06T06:40:02.600Z,1004.42
2019-04-06T06:41:01.775Z,1004.42
2019-04-06T06:42:01.935Z,1004.42
2019-04-06T06:43:02.091Z,1004.37
2019-04-06T06:44:02.369Z,1004.37
2019-04-06T06:45:02.059Z,1004.37
2019-04-06T06:46:02.263Z,1004.37
2019-04-06T06:47:02.365Z,1004.43
2019-04-06T06:48:02.516Z,1004.43
2019-04-06T06:49:01.758Z,1004.43
2019-04-06T06:50:02.245Z,1004.43
2019-04-06T06:51:02.244Z,1004.41
2019-04-06T06:52:02.379Z,1004.41
2019-04-06T06:53:02.659Z,1004.41
2019-04-06T06:54:01.745Z,1004.41
2019-04-06T06:55:02.315Z,1004.44
2019-04-06T06:56:02.304Z,1004.44
2019-04-06T06:57:02.247Z,1004.44
2019-04-06T06:58:02.414Z,1004.44
2019-04-06T06:59:02.508Z,1004.52
2019-04-06T07:00:03.700Z,1004.52
2019-04-06T07:01:04.098Z,1004.52
2019-04-06T07:02:01.636Z,1004.52
2019-04-06T07:03:02.075Z,1004.37
2019-04-06T07:04:02.468Z,1004.37
2019-04-06T07:05:02.478Z,1004.37
2019-04-06T07:06:02.601Z,1004.37
2019-04-06T07:07:01.957Z,1004.47
2019-04-06T07:08:02.088Z,1004.47
2019-04-06T07:09:02.338Z,1004.47
2019-04-06T07:10:06.697Z,1004.47
2019-04-06T07:11:01.718Z,1004.54
2019-04-06T07:12:01.991Z,1004.54
2019-04-06T07:13:01.989Z,1004.54
2019-04-06T07:14:02.594Z,1004.54
2019-04-06T07:15:02.481Z,1004.52
2019-04-06T07:16:02.499Z,1004.52
2019-04-06T07:17:01.725Z,1004.52
2019-04-06T07:18:02.235Z,1004.52
2019-04-06T07:19:02.233Z,1004.48
2019-04-06T07:20:02.759Z,1004.48
2019-04-06T07:21:01.888Z,1004.48
2019-04-06T07:22:01.888Z,1004.48
2019-04-06T07:23:02.219Z,1004.58
2019-04-06T07:24:02.392Z,1004.58
2019-04-06T07:25:02.948Z,1004.58
2019-04-06T07:26:01.793Z,1004.58
2019-04-06T07:27:02.130Z,1004.58
2019-04-06T07:28:02.157Z,1004.58
2019-04-06T07:29:02.682Z,1004.58
2019-04-06T07:30:02.515Z,1004.58
2019-04-06T07:31:01.639Z,1004.48
2019-04-06T07:32:01.913Z,1004.48
2019-04-06T07:33:01.913Z,1004.48
2019-04-06T07:34:02.236Z,1004.48
2019-04-06T07:35:02.369Z,1004.49
2019-04-06T07:36:02.816Z,1004.49
2019-04-06T07:37:01.748Z,1004.49
2019-04-06T07:38:02.078Z,1004.49
2019-04-06T07:39:02.104Z,1004.44
2019-04-06T07:40:02.298Z,1004.44
2019-04-06T07:41:02.529Z,1004.44
2019-04-06T07:42:01.692Z,1004.44
2019-04-06T07:43:02.026Z,1004.51
2019-04-06T07:44:02.132Z,1004.51
2019-04-06T07:45:02.364Z,1004.51
2019-04-06T07:46:02.940Z,1004.51
2019-04-06T07:47:02.320Z,1004.59
2019-04-06T07:48:02.569Z,1004.59
2019-04-06T07:49:10.606Z,1004.59
2019-04-06T07:50:01.965Z,1004.59
2019-04-06T07:51:02.114Z,1004.61
2019-04-06T07:52:02.431Z,1004.61
2019-04-06T07:53:02.465Z,1004.61
2019-04-06T07:54:03.138Z,1004.61
2019-04-06T07:55:01.867Z,1004.56
2019-04-06T07:56:02.062Z,1004.56
2019-04-06T07:57:02.312Z,1004.56
2019-04-06T07:58:02.462Z,1004.56
2019-04-06T07:59:01.739Z,1004.62
2019-04-06T08:00:04.352Z,1004.62
2019-04-06T08:01:02.052Z,1004.62
2019-04-06T08:02:02.075Z,1004.62
2019-04-06T08:03:02.269Z,1004.49
2019-04-06T08:04:02.625Z,1004.49
2019-04-06T08:05:02.790Z,1004.49
2019-04-06T08:06:02.271Z,1004.49
2019-04-06T08:07:02.054Z,1004.64
2019-04-06T08:08:02.239Z,1004.64
2019-04-06T08:09:02.503Z,1004.64
2019-04-06T08:10:01.687Z,1004.64
2019-04-06T08:11:01.776Z,1004.56
2019-04-06T08:12:01.894Z,1004.56
2019-04-06T08:13:02.147Z,1004.56
2019-04-06T08:14:02.568Z,1004.56
2019-04-06T08:15:02.658Z,1004.52
2019-04-06T08:16:01.871Z,1004.52
2019-04-06T08:17:02.168Z,1004.52
2019-04-06T08:18:02.491Z,1004.5
2019-04-06T08:19:02.343Z,1004.5
2019-04-06T08:20:02.669Z,1004.5
2019-04-06T08:21:01.623Z,1004.5
2019-04-06T08:22:01.972Z,1004.6
2019-04-06T08:23:02.154Z,1004.6
2019-04-06T08:24:02.232Z,1004.6
2019-04-06T08:25:02.635Z,1004.6
2019-04-06T08:26:01.562Z,1004.61
2019-04-06T08:27:01.679Z,1004.61
2019-04-06T08:28:02.130Z,1004.61
2019-04-06T08:29:03.153Z,1004.61
2019-04-06T08:30:02.597Z,1004.51
2019-04-06T08:31:01.805Z,1004.51
2019-04-06T08:32:02.196Z,1004.51
2019-04-06T08:33:02.183Z,1004.51
2019-04-06T08:34:02.502Z,1004.57
2019-04-06T08:35:02.639Z,1004.57
2019-04-06T08:36:02.623Z,1004.57
2019-04-06T08:37:01.619Z,1004.57
2019-04-06T08:38:01.816Z,1004.52
2019-04-06T08:39:01.952Z,1004.52
2019-04-06T08:40:02.591Z,1004.52
2019-04-06T08:41:02.529Z,1004.52
2019-04-06T08:42:01.676Z,1004.56
2019-04-06T08:43:01.962Z,1004.56
2019-04-06T08:44:02.211Z,1004.56
2019-04-06T08:45:02.454Z,1004.56
2019-04-06T08:46:02.790Z,1004.54
2019-04-06T08:47:02.319Z,1004.54
2019-04-06T08:48:02.147Z,1004.54
2019-04-06T08:49:02.207Z,1004.54
2019-04-06T08:50:02.698Z,1004.49
2019-04-06T08:51:02.551Z,1004.49
2019-04-06T08:52:05.735Z,1004.49
2019-04-06T08:53:02.231Z,1004.49
2019-04-06T08:54:02.333Z,1004.62
2019-04-06T08:55:02.356Z,1004.62
2019-04-06T08:56:02.522Z,1004.62
2019-04-06T08:57:01.698Z,1004.62
2019-04-06T08:58:01.836Z,1004.62
2019-04-06T08:59:13.639Z,1004.62
2019-04-06T09:00:04.603Z,1004.62
2019-04-06T09:01:02.490Z,1004.62
2019-04-06T09:02:02.594Z,1004.65
2019-04-06T09:03:01.745Z,1004.65
2019-04-06T09:04:01.950Z,1004.65
2019-04-06T09:05:02.216Z,1004.65
2019-04-06T09:06:02.449Z,1004.52
2019-04-06T09:07:01.897Z,1004.52
2019-04-06T09:08:02.234Z,1004.52
2019-04-06T09:09:02.166Z,1004.52
2019-04-06T09:10:02.365Z,1004.6
2019-04-06T09:11:02.651Z,1004.6
2019-04-06T09:12:01.808Z,1004.6
2019-04-06T09:13:01.944Z,1004.6
2019-04-06T09:14:02.392Z,1004.62
2019-04-06T09:15:02.497Z,1004.62
2019-04-06T09:16:04.276Z,1004.62
2019-04-06T09:17:01.976Z,1004.62
2019-04-06T09:18:02.250Z,1004.48
2019-04-06T09:19:02.469Z,1004.48
2019-04-06T09:20:02.684Z,1004.48
2019-04-06T09:21:01.858Z,1004.48
2019-04-06T09:22:02.138Z,1004.49
2019-04-06T09:23:02.295Z,1004.49
2019-04-06T09:24:02.716Z,1004.49
2019-04-06T09:25:01.783Z,1004.49
2019-04-06T09:26:02.059Z,1004.59
2019-04-06T09:27:01.989Z,1004.59
2019-04-06T09:28:02.703Z,1004.59
2019-04-06T09:29:02.522Z,1004.59
2019-04-06T09:30:01.982Z,1004.59
2019-04-06T09:31:01.851Z,1004.59
2019-04-06T09:32:05.653Z,1004.59
2019-04-06T09:33:02.560Z,1004.59
2019-04-06T09:34:02.720Z,1004.6
2019-04-06T09:35:01.794Z,1004.6
2019-04-06T09:36:03.021Z,1004.6
2019-04-06T09:37:02.305Z,1004.6
2019-04-06T09:38:02.384Z,1004.59
2019-04-06T09:39:02.003Z,1004.59
2019-04-06T09:40:01.878Z,1004.59
2019-04-06T09:41:02.205Z,1004.59
2019-04-06T09:42:02.264Z,1004.52
2019-04-06T09:43:02.547Z,1004.52
2019-04-06T09:44:01.871Z,1004.52
2019-04-06T09:45:02.027Z,1004.52
2019-04-06T09:46:02.355Z,1004.58
2019-04-06T09:47:02.468Z,1004.58
2019-04-06T09:48:02.621Z,1004.58
2019-04-06T09:49:01.923Z,1004.58
2019-04-06T09:50:01.765Z,1004.52
2019-04-06T09:51:02.082Z,1004.52
2019-04-06T09:52:02.446Z,1004.52
2019-04-06T09:53:02.443Z,1004.52
2019-04-06T09:54:07.613Z,1004.54
2019-04-06T09:55:01.978Z,1004.54
2019-04-06T09:56:02.303Z,1004.54
2019-04-06T09:57:02.739Z,1004.54
2019-04-06T09:58:01.715Z,1004.64
2019-04-06T09:59:02.150Z,1004.64
2019-04-06T10:00:04.205Z,1004.64
2019-04-06T10:01:01.983Z,1004.5
2019-04-06T10:02:02.284Z,1004.5
2019-04-06T10:03:02.461Z,1004.5
2019-04-06T10:04:02.315Z,1004.5
2019-04-06T10:05:02.625Z,1004.49
2019-04-06T10:06:01.777Z,1004.49
2019-04-06T10:07:02.229Z,1004.49
2019-04-06T10:08:02.553Z,1004.49
2019-04-06T10:09:02.524Z,1004.51
2019-04-06T10:10:01.814Z,1004.51
2019-04-06T10:11:02.048Z,1004.51
2019-04-06T10:12:04.753Z,1004.51
2019-04-06T10:13:02.396Z,1004.55
2019-04-06T10:14:02.890Z,1004.55
2019-04-06T10:15:01.872Z,1004.55
2019-04-06T10:16:02.075Z,1004.55
2019-04-06T10:17:02.238Z,1004.53
2019-04-06T10:18:02.419Z,1004.53
2019-04-06T10:19:02.660Z,1004.53
2019-04-06T10:20:01.828Z,1004.53
2019-04-06T10:21:02.160Z,1004.5
2019-04-06T10:22:02.195Z,1004.5
2019-04-06T10:23:02.863Z,1004.5
2019-04-06T10:24:02.127Z,1004.5
2019-04-06T10:25:02.495Z,1004.54
2019-04-06T10:26:02.250Z,1004.54
2019-04-06T10:27:02.708Z,1004.54
2019-04-06T10:28:01.928Z,1004.54
2019-04-06T10:29:01.693Z,1004.43
2019-04-06T10:30:01.957Z,1004.43
2019-04-06T10:31:02.547Z,1004.43
2019-04-06T10:32:02.510Z,1004.43
2019-04-06T10:33:01.638Z,1004.52
2019-04-06T10:34:02.044Z,1004.52
2019-04-06T10:35:02.319Z,1004.52
2019-04-06T10:36:02.241Z,1004.52
2019-04-06T10:37:02.076Z,1004.5
2019-04-06T10:38:02.331Z,1004.5
2019-04-06T10:39:02.583Z,1004.5
2019-04-06T10:40:01.700Z,1004.5
2019-04-06T10:41:02.411Z,1004.49
2019-04-06T10:42:01.835Z,1004.49
2019-04-06T10:43:02.226Z,1004.49
2019-04-06T10:44:02.177Z,1004.49
2019-04-06T10:45:02.637Z,1004.5
2019-04-06T10:46:01.771Z,1004.5
2019-04-06T10:47:02.148Z,1004.5
2019-04-06T10:48:02.396Z,1004.5
2019-04-06T10:49:02.499Z,1004.39
2019-04-06T10:50:01.768Z,1004.39
2019-04-06T10:51:01.966Z,1004.39
2019-04-06T10:52:02.210Z,1004.39
2019-04-06T10:53:02.456Z,1004.42
2019-04-06T10:54:02.628Z,1004.42
2019-04-06T10:55:01.971Z,1004.42
2019-04-06T10:56:02.135Z,1004.42
2019-04-06T10:57:02.807Z,1004.43
2019-04-06T10:58:02.821Z,1004.43
2019-04-06T10:59:04.008Z,1004.43
2019-04-06T11:00:06.957Z,1004.43
2019-04-06T11:01:01.770Z,1004.46
2019-04-06T11:02:01.974Z,1004.46
2019-04-06T11:03:02.266Z,1004.46
2019-04-06T11:04:02.559Z,1004.46
2019-04-06T11:05:02.594Z,1004.34
2019-04-06T11:06:01.845Z,1004.34
2019-04-06T11:07:02.125Z,1004.34
2019-04-06T11:08:02.343Z,1004.34
2019-04-06T11:09:02.773Z,1004.51
2019-04-06T11:10:02.142Z,1004.51
2019-04-06T11:11:03.523Z,1004.51
2019-04-06T11:12:02.199Z,1004.51
2019-04-06T11:13:02.423Z,1004.47
2019-04-06T11:14:02.602Z,1004.47
2019-04-06T11:15:01.839Z,1004.47
2019-04-06T11:16:02.031Z,1004.47
2019-04-06T11:17:02.261Z,1004.48
2019-04-06T11:18:02.585Z,1004.48
2019-04-06T11:19:02.866Z,1004.48
2019-04-06T11:20:02.156Z,1004.48
2019-04-06T11:21:02.149Z,1004.53
2019-04-06T11:22:02.776Z,1004.53
2019-04-06T11:23:02.560Z,1004.53
2019-04-06T11:24:01.848Z,1004.53
2019-04-06T11:25:02.509Z,1004.47
2019-04-06T11:26:02.181Z,1004.47
2019-04-06T11:27:02.592Z,1004.47
2019-04-06T11:28:04.678Z,1004.47
2019-04-06T11:29:01.935Z,1004.47
2019-04-06T11:30:15.299Z,1004.47
2019-04-06T11:31:02.220Z,1004.47
2019-04-06T11:32:02.805Z,1004.47
2019-04-06T11:33:01.834Z,1004.54
2019-04-06T11:34:01.986Z,1004.54
2019-04-06T11:35:01.871Z,1004.54
2019-04-06T11:36:02.136Z,1004.54
2019-04-06T11:37:02.265Z,1004.6
2019-04-06T11:38:02.631Z,1004.6
2019-04-06T11:39:01.957Z,1004.6
2019-04-06T11:40:05.574Z,1004.6
2019-04-06T11:41:02.628Z,1004.44
2019-04-06T11:42:02.571Z,1004.44
2019-04-06T11:43:02.107Z,1004.44
2019-04-06T11:44:02.033Z,1004.46
2019-04-06T11:45:02.664Z,1004.46
2019-04-06T11:46:02.912Z,1004.46
2019-04-06T11:47:01.726Z,1004.46
2019-04-06T11:48:02.097Z,1004.48
2019-04-06T11:49:02.196Z,1004.48
2019-04-06T11:50:02.651Z,1004.48
2019-04-06T11:51:01.689Z,1004.48
2019-04-06T11:52:01.907Z,1004.45
2019-04-06T11:53:02.202Z,1004.45
2019-04-06T11:54:02.586Z,1004.45
2019-04-06T11:55:02.873Z,1004.45
2019-04-06T11:56:02.977Z,1004.4
2019-04-06T11:57:01.813Z,1004.4
2019-04-06T11:58:02.467Z,1004.4
2019-04-06T11:59:02.596Z,1004.4
2019-04-06T12:00:03.900Z,1004.59
2019-04-06T12:01:01.844Z,1004.59
2019-04-06T12:02:01.662Z,1004.59
2019-04-06T12:03:01.908Z,1004.59
2019-04-06T12:04:02.316Z,1004.52
2019-04-06T12:05:02.530Z,1004.52
2019-04-06T12:06:01.680Z,1004.52
2019-04-06T12:07:02.108Z,1004.52
2019-04-06T12:08:02.098Z,1004.48
2019-04-06T12:09:02.261Z,1004.48